| time (UTC) | temp F | wind direction | speed MPH | gust MPH | rain 1hr in | rain 24hr in | rain mn in | humidity % | barometer mb |
| 20260508000018 | 89 | 278 | 5.0 | 12.0 | 0.00 | 0.00 | 0.00 | 13 | 1006.0 |
| 20260507234510 | 88 | 338 | 0.0 | 13.0 | 0.00 | 0.00 | 0.00 | 15 | 1006.1 |
| 20260507233009 | 89 | 286 | 8.0 | 11.0 | 0.00 | 0.00 | 0.00 | 14 | 1006.1 |
| 20260507231505 | 88 | 306 | 3.0 | 14.0 | 0.00 | 0.00 | 0.00 | 14 | 1006.1 |
| 20260507230005 | 88 | 248 | 2.0 | 6.0 | 0.00 | 0.00 | 0.00 | 14 | 1006.3 |
| 20260507224503 | 89 | 313 | 10.0 | 16.0 | 0.00 | 0.00 | 0.00 | 14 | 1006.2 |
| 20260507223004 | 88 | 290 | 5.0 | 13.0 | 0.00 | 0.00 | 0.00 | 14 | 1006.5 |
| 20260507221557 | 90 | 118 | 0.0 | 5.0 | 0.00 | 0.00 | 0.00 | 12 | 1006.6 |
| 20260507220054 | 88 | 354 | 4.0 | 14.0 | 0.00 | 0.00 | 0.00 | 14 | 1006.9 |
| 20260507214554 | 88 | 301 | 0.0 | 13.0 | 0.00 | 0.00 | 0.00 | 14 | 1007.1 |
| 20260507213052 | 88 | 295 | 8.0 | 15.0 | 0.00 | 0.00 | 0.00 | 13 | 1007.3 |
| 20260507211551 | 88 | 281 | 3.0 | 8.0 | 0.00 | 0.00 | 0.00 | 14 | 1007.6 |
| 20260507210111 | 89 | 294 | 0.0 | 12.0 | 0.00 | 0.00 | 0.00 | 13 | 1007.8 |
| 20260507204542 | 88 | 137 | 0.0 | 8.0 | 0.00 | 0.00 | 0.00 | 13 | 1007.9 |
| 20260507203039 | 87 | 230 | 0.0 | 13.0 | 0.00 | 0.00 | 0.00 | 14 | 1008.1 |
| 20260507201537 | 86 | 288 | 4.0 | 10.0 | 0.00 | 0.00 | 0.00 | 15 | 1008.4 |
| 20260507200050 | 85 | 248 | 0.0 | 12.0 | 0.00 | 0.00 | 0.00 | 15 | 1008.6 |
| 20260507194534 | 86 | 294 | 4.0 | 13.0 | 0.00 | 0.00 | 0.00 | 15 | 1008.8 |
| 20260507193059 | 86 | 333 | 2.0 | 12.0 | 0.00 | 0.00 | 0.00 | 15 | 1008.9 |
| 20260507191605 | 86 | 314 | 0.0 | 5.0 | 0.00 | 0.00 | 0.00 | 15 | 1009.2 |
| 20260507190057 | 84 | 306 | 4.0 | 13.0 | 0.00 | 0.00 | 0.00 | 16 | 1009.4 |
| 20260507184553 | 84 | 292 | 3.0 | 8.0 | 0.00 | 0.00 | 0.00 | 17 | 1009.7 |
| 20260507183100 | 85 | 266 | 0.0 | 3.0 | 0.00 | 0.00 | 0.00 | 18 | 1009.9 |
| 20260507181547 | 85 | 93 | 1.0 | 5.0 | 0.00 | 0.00 | 0.00 | 16 | 1010.2 |
| 20260507180044 | 82 | 137 | 2.0 | 5.0 | 0.00 | 0.00 | 0.00 | 18 | 1010.5 |
| 20260507174514 | 80 | 276 | 0.0 | 1.0 | 0.00 | 0.00 | 0.00 | 21 | 1010.7 |
| 20260507173016 | 79 | 259 | 0.0 | 4.0 | 0.00 | 0.00 | 0.00 | 22 | 1010.9 |
| 20260507171502 | 78 | 249 | 0.0 | 3.0 | 0.00 | 0.00 | 0.00 | 24 | 1011.0 |
| 20260507170000 | 79 | 280 | 0.0 | 1.0 | 0.00 | 0.00 | 0.00 | 22 | 1011.2 |
| 20260507164606 | 78 | 256 | 0.0 | 0.0 | 0.00 | 0.00 | 0.00 | 25 | 1011.3 |
| 20260507163055 | 78 | 300 | 0.0 | 3.0 | 0.00 | 0.00 | 0.00 | 24 | 1011.4 |
| 20260507161608 | 77 | 236 | 0.0 | 3.0 | 0.00 | 0.00 | 0.00 | 25 | 1011.6 |
| 20260507160104 | 76 | 205 | 0.0 | 2.0 | 0.00 | 0.00 | 0.00 | 24 | 1011.8 |
| 20260507154547 | 74 | 245 | 0.0 | 1.0 | 0.00 | 0.00 | 0.00 | 30 | 1011.9 |
| 20260507153044 | 72 | 150 | 0.0 | 0.0 | 0.00 | 0.00 | 0.00 | 32 | 1012.0 |
| 20260507151542 | 71 | 150 | 0.0 | 0.0 | 0.00 | 0.00 | 0.00 | 32 | 1012.2 |
| 20260507150035 | 69 | 124 | 0.0 | 0.0 | 0.00 | 0.00 | 0.00 | 32 | 1012.3 |
| 20260507144544 | 68 | 131 | 0.0 | 0.0 | 0.00 | 0.00 | 0.00 | 36 | 1012.4 |
| 20260507143031 | 66 | 120 | 0.0 | 1.0 | 0.00 | 0.00 | 0.00 | 39 | 1012.4 |
| 20260507141527 | 64 | 137 | 0.0 | 0.0 | 0.00 | 0.00 | 0.00 | 40 | 1012.4 |
| 20260507140100 | 61 | 120 | 0.0 | 3.0 | 0.00 | 0.00 | 0.00 | 44 | 1012.3 |
| 20260507134602 | 61 | 137 | 0.0 | 0.0 | 0.00 | 0.00 | 0.00 | 44 | 1012.4 |
| 20260507133050 | 58 | 91 | 0.0 | 0.0 | 0.00 | 0.00 | 0.00 | 45 | 1012.3 |
| 20260507131550 | 56 | 129 | 0.0 | 2.0 | 0.00 | 0.00 | 0.00 | 46 | 1012.2 |
| 20260507130047 | 56 | 99 | 0.0 | 0.0 | 0.00 | 0.00 | 0.00 | 46 | 1012.0 |
| 20260507124547 | 56 | 99 | 0.0 | 0.0 | 0.00 | 0.00 | 0.00 | 44 | 1011.9 |
| 20260507123046 | 57 | 100 | 0.0 | 2.0 | 0.00 | 0.00 | 0.00 | 44 | 1011.8 |
| 20260507121544 | 57 | 94 | 0.0 | 2.0 | 0.00 | 0.00 | 0.00 | 45 | 1011.9 |
| 20260507120041 | 56 | 114 | 0.0 | 0.0 | 0.00 | 0.00 | 0.00 | 47 | 1011.9 |
| 20260507114548 | 56 | 117 | 0.0 | 0.0 | 0.00 | 0.00 | 0.00 | 48 | 1012.1 |
| 20260507113038 | 57 | 94 | 0.0 | 3.0 | 0.00 | 0.00 | 0.00 | 46 | 1011.9 |
| 20260507111543 | 56 | 105 | 0.0 | 2.0 | 0.00 | 0.00 | 0.00 | 49 | 1012.0 |
| 20260507110034 | 55 | 110 | 0.0 | 0.0 | 0.00 | 0.00 | 0.00 | 50 | 1011.9 |
| 20260507104533 | 55 | 109 | 0.0 | 0.0 | 0.00 | 0.00 | 0.00 | 51 | 1011.8 |
| 20260507103027 | 55 | 109 | 0.0 | 0.0 | 0.00 | 0.00 | 0.00 | 51 | 1011.7 |
| 20260507101523 | 57 | 109 | 0.0 | 0.0 | 0.00 | 0.00 | 0.00 | 48 | 1011.7 |
| 20260507100022 | 59 | 109 | 0.0 | 0.0 | 0.00 | 0.00 | 0.00 | 42 | 1011.7 |
| 20260507094518 | 59 | 109 | 0.0 | 0.0 | 0.00 | 0.00 | 0.00 | 41 | 1011.8 |
| 20260507093013 | 60 | 109 | 0.0 | 0.0 | 0.00 | 0.00 | 0.00 | 39 | 1011.9 |
| 20260507091512 | 61 | 108 | 0.0 | 3.0 | 0.00 | 0.00 | 0.00 | 39 | 1012.0 |
| 20260507090012 | 60 | 86 | 0.0 | 0.0 | 0.00 | 0.00 | 0.00 | 43 | 1012.1 |
| 20260507084514 | 60 | 83 | 0.0 | 0.0 | 0.00 | 0.00 | 0.00 | 42 | 1012.1 |
| 20260507083006 | 61 | 165 | 0.0 | 0.0 | 0.00 | 0.00 | 0.00 | 41 | 1012.1 |
| 20260507081506 | 62 | 84 | 0.0 | 4.0 | 0.00 | 0.00 | 0.00 | 39 | 1012.1 |
| 20260507080010 | 62 | 108 | 0.0 | 2.0 | 0.00 | 0.00 | 0.00 | 40 | 1012.0 |
| 20260507074503 | 60 | 114 | 0.0 | 0.0 | 0.00 | 0.00 | 0.00 | 45 | 1012.0 |
| 20260507073029 | 60 | 307 | 0.0 | 2.0 | 0.00 | 0.00 | 0.00 | 46 | 1012.1 |
| 20260507071529 | 63 | 77 | 0.0 | 0.0 | 0.00 | 0.00 | 0.00 | 39 | 1012.0 |
| 20260507070057 | 62 | 116 | 0.0 | 1.0 | 0.00 | 0.00 | 0.00 | 39 | 1011.9 |
| 20260507064608 | 62 | 91 | 0.0 | 0.0 | 0.00 | 0.00 | 0.00 | 40 | 1012.1 |
| 20260507063054 | 62 | 91 | 0.0 | 0.0 | 0.00 | 0.00 | 0.00 | 40 | 1011.9 |
| 20260507061551 | 63 | 43 | 0.0 | 0.0 | 0.00 | 0.00 | 0.00 | 38 | 1011.9 |
| 20260507060052 | 63 | 43 | 0.0 | 0.0 | 0.00 | 0.00 | 0.00 | 36 | 1011.7 |
| 20260507054600 | 65 | 43 | 0.0 | 0.0 | 0.00 | 0.00 | 0.00 | 35 | 1011.8 |
| 20260507053047 | 64 | 43 | 0.0 | 0.0 | 0.00 | 0.00 | 0.00 | 35 | 1011.8 |
| 20260507051547 | 65 | 43 | 0.0 | 0.0 | 0.00 | 0.00 | 0.00 | 36 | 1011.8 |
| 20260507050046 | 68 | 43 | 0.0 | 0.0 | 0.00 | 0.00 | 0.00 | 31 | 1011.7 |
| 20260507044546 | 68 | 43 | 0.0 | 0.0 | 0.00 | 0.00 | 0.00 | 29 | 1011.6 |
| 20260507043045 | 68 | 43 | 0.0 | 0.0 | 0.00 | 0.00 | 0.00 | 27 | 1011.5 |
| 20260507041551 | 69 | 345 | 0.0 | 0.0 | 0.00 | 0.00 | 0.00 | 26 | 1011.3 |
| 20260507040041 | 70 | 300 | 0.0 | 6.0 | 0.00 | 0.00 | 0.00 | 25 | 1011.2 |
| 20260507034540 | 70 | 295 | 3.0 | 6.0 | 0.00 | 0.00 | 0.00 | 25 | 1011.0 |
| 20260507033044 | 71 | 275 | 4.0 | 8.0 | 0.00 | 0.00 | 0.00 | 24 | 1010.9 |
| 20260507031538 | 71 | 300 | 4.0 | 9.0 | 0.00 | 0.00 | 0.00 | 23 | 1010.8 |
| 20260507030038 | 72 | 304 | 4.0 | 9.0 | 0.00 | 0.00 | 0.00 | 23 | 1010.6 |
| 20260507030035 | 72 | 295 | 4.0 | 9.0 | 0.00 | 0.00 | 0.00 | 23 | 1010.6 |
| 20260507024535 | 72 | 295 | 3.0 | 5.0 | 0.00 | 0.00 | 0.00 | 23 | 1010.5 |
| 20260507023034 | 73 | 300 | 2.0 | 7.0 | 0.00 | 0.00 | 0.00 | 22 | 1010.5 |
| 20260507021503 | 74 | 283 | 4.0 | 9.0 | 0.00 | 0.00 | 0.00 | 21 | 1010.4 |
| 20260507020002 | 75 | 275 | 3.0 | 9.0 | 0.00 | 0.00 | 0.00 | 21 | 1010.4 |
| 20260507014547 | 76 | 312 | 6.0 | 13.0 | 0.00 | 0.00 | 0.00 | 20 | 1010.3 |
| 20260507013042 | 77 | 300 | 4.0 | 13.0 | 0.00 | 0.00 | 0.00 | 20 | 1010.2 |
| 20260507011534 | 78 | 293 | 4.0 | 12.0 | 0.00 | 0.00 | 0.00 | 20 | 1010.2 |
| 20260507010024 | 78 | 290 | 5.0 | 15.0 | 0.00 | 0.00 | 0.00 | 20 | 1010.2 |
| 20260507004523 | 79 | 296 | 6.0 | 11.0 | 0.00 | 0.00 | 0.00 | 21 | 1010.3 |
| 20260507003022 | 79 | 312 | 5.0 | 11.0 | 0.00 | 0.00 | 0.00 | 21 | 1010.2 |
| 20260507001519 | 79 | 293 | 6.0 | 11.0 | 0.00 | 0.00 | 0.00 | 21 | 1010.2 |